sensor_id;sensor_type;location;lat;lon;timestamp;P1;durP1;ratioP1;P2;durP2;ratioP2
23258;SDS011;11798;51.528;7.240;2023-02-03T00:00:22;32.97;;;23.70;;
23258;SDS011;11798;51.528;7.240;2023-02-03T00:02:47;36.27;;;24.23;;
23258;SDS011;11798;51.528;7.240;2023-02-03T00:05:13;41.87;;;23.67;;
23258;SDS011;11798;51.528;7.240;2023-02-03T00:07:38;38.33;;;24.93;;
23258;SDS011;11798;51.528;7.240;2023-02-03T00:10:04;39.83;;;24.70;;
23258;SDS011;11798;51.528;7.240;2023-02-03T00:12:30;32.90;;;22.60;;
23258;SDS011;11798;51.528;7.240;2023-02-03T00:14:57;31.50;;;22.00;;
23258;SDS011;11798;51.528;7.240;2023-02-03T00:17:22;35.37;;;24.03;;
23258;SDS011;11798;51.528;7.240;2023-02-03T00:19:48;34.83;;;23.90;;
23258;SDS011;11798;51.528;7.240;2023-02-03T00:22:14;32.20;;;23.17;;
23258;SDS011;11798;51.528;7.240;2023-02-03T00:24:39;34.80;;;22.40;;
23258;SDS011;11798;51.528;7.240;2023-02-03T00:27:05;36.17;;;24.33;;
23258;SDS011;11798;51.528;7.240;2023-02-03T00:29:30;30.43;;;22.30;;
23258;SDS011;11798;51.528;7.240;2023-02-03T00:31:56;31.43;;;22.30;;
23258;SDS011;11798;51.528;7.240;2023-02-03T00:34:26;30.03;;;20.90;;
23258;SDS011;11798;51.528;7.240;2023-02-03T00:36:53;34.40;;;21.93;;
23258;SDS011;11798;51.528;7.240;2023-02-03T00:39:18;34.20;;;22.47;;
23258;SDS011;11798;51.528;7.240;2023-02-03T00:41:44;38.43;;;23.07;;
23258;SDS011;11798;51.528;7.240;2023-02-03T00:44:09;33.33;;;22.60;;
23258;SDS011;11798;51.528;7.240;2023-02-03T00:46:35;35.73;;;24.10;;
23258;SDS011;11798;51.528;7.240;2023-02-03T00:49:01;35.77;;;23.13;;
23258;SDS011;11798;51.528;7.240;2023-02-03T00:51:28;32.33;;;22.63;;
23258;SDS011;11798;51.528;7.240;2023-02-03T00:53:53;32.47;;;21.37;;
23258;SDS011;11798;51.528;7.240;2023-02-03T00:56:19;30.13;;;22.40;;
23258;SDS011;11798;51.528;7.240;2023-02-03T00:58:44;29.23;;;22.20;;
23258;SDS011;11798;51.528;7.240;2023-02-03T01:01:10;30.43;;;21.77;;
23258;SDS011;11798;51.528;7.240;2023-02-03T01:03:36;30.70;;;21.97;;
23258;SDS011;11798;51.528;7.240;2023-02-03T01:06:09;32.63;;;20.93;;
23258;SDS011;11798;51.528;7.240;2023-02-03T01:08:39;31.73;;;22.00;;
23258;SDS011;11798;51.528;7.240;2023-02-03T01:11:08;33.13;;;21.97;;
23258;SDS011;11798;51.528;7.240;2023-02-03T01:13:39;34.60;;;23.10;;
23258;SDS011;11798;51.528;7.240;2023-02-03T01:16:08;32.67;;;22.03;;
23258;SDS011;11798;51.528;7.240;2023-02-03T01:18:35;37.83;;;22.93;;
23258;SDS011;11798;51.528;7.240;2023-02-03T01:21:08;36.27;;;23.17;;
23258;SDS011;11798;51.528;7.240;2023-02-03T01:23:38;30.73;;;21.57;;
23258;SDS011;11798;51.528;7.240;2023-02-03T01:26:04;32.10;;;21.90;;
23258;SDS011;11798;51.528;7.240;2023-02-03T01:28:32;33.90;;;22.80;;
23258;SDS011;11798;51.528;7.240;2023-02-03T01:31:12;36.60;;;22.13;;
23258;SDS011;11798;51.528;7.240;2023-02-03T01:33:39;33.13;;;22.97;;
23258;SDS011;11798;51.528;7.240;2023-02-03T01:36:07;33.60;;;23.20;;
23258;SDS011;11798;51.528;7.240;2023-02-03T01:38:33;35.57;;;23.00;;
23258;SDS011;11798;51.528;7.240;2023-02-03T01:41:00;34.80;;;22.70;;
23258;SDS011;11798;51.528;7.240;2023-02-03T01:43:29;32.83;;;22.83;;
23258;SDS011;11798;51.528;7.240;2023-02-03T01:45:59;38.37;;;23.17;;
23258;SDS011;11798;51.528;7.240;2023-02-03T01:48:30;38.13;;;23.47;;
23258;SDS011;11798;51.528;7.240;2023-02-03T01:50:59;31.07;;;22.30;;
23258;SDS011;11798;51.528;7.240;2023-02-03T01:53:26;38.13;;;22.90;;
23258;SDS011;11798;51.528;7.240;2023-02-03T01:55:52;31.80;;;22.40;;
23258;SDS011;11798;51.528;7.240;2023-02-03T01:58:22;33.37;;;22.20;;
23258;SDS011;11798;51.528;7.240;2023-02-03T02:00:50;36.90;;;23.57;;
23258;SDS011;11798;51.528;7.240;2023-02-03T02:03:20;31.80;;;21.97;;
23258;SDS011;11798;51.528;7.240;2023-02-03T02:05:52;33.07;;;22.37;;
23258;SDS011;11798;51.528;7.240;2023-02-03T02:08:22;30.87;;;22.73;;
23258;SDS011;11798;51.528;7.240;2023-02-03T02:10:48;30.63;;;20.80;;
23258;SDS011;11798;51.528;7.240;2023-02-03T02:13:15;37.07;;;22.97;;
23258;SDS011;11798;51.528;7.240;2023-02-03T02:18:22;33.00;;;20.57;;
23258;SDS011;11798;51.528;7.240;2023-02-03T02:26:24;34.20;;;21.90;;
23258;SDS011;11798;51.528;7.240;2023-02-03T02:31:56;38.67;;;21.17;;
23258;SDS011;11798;51.528;7.240;2023-02-03T02:37:25;27.50;;;20.07;;
23258;SDS011;11798;51.528;7.240;2023-02-03T02:40:06;33.47;;;20.60;;
23258;SDS011;11798;51.528;7.240;2023-02-03T02:48:31;31.40;;;18.43;;
23258;SDS011;11798;51.528;7.240;2023-02-03T02:51:04;28.23;;;18.70;;
23258;SDS011;11798;51.528;7.240;2023-02-03T02:53:34;30.73;;;19.80;;
23258;SDS011;11798;51.528;7.240;2023-02-03T02:56:04;31.50;;;18.93;;
23258;SDS011;11798;51.528;7.240;2023-02-03T02:58:36;25.50;;;18.73;;
23258;SDS011;11798;51.528;7.240;2023-02-03T03:01:06;29.33;;;18.87;;
23258;SDS011;11798;51.528;7.240;2023-02-03T03:03:33;28.57;;;17.63;;
23258;SDS011;11798;51.528;7.240;2023-02-03T03:06:01;27.40;;;17.20;;
23258;SDS011;11798;51.528;7.240;2023-02-03T03:08:35;30.43;;;17.03;;
23258;SDS011;11798;51.528;7.240;2023-02-03T03:11:08;26.77;;;16.23;;
23258;SDS011;11798;51.528;7.240;2023-02-03T03:13:35;23.03;;;16.03;;
23258;SDS011;11798;51.528;7.240;2023-02-03T03:16:05;26.47;;;17.07;;
23258;SDS011;11798;51.528;7.240;2023-02-03T03:18:48;20.37;;;15.00;;
23258;SDS011;11798;51.528;7.240;2023-02-03T03:21:21;24.73;;;15.57;;
23258;SDS011;11798;51.528;7.240;2023-02-03T03:23:56;26.43;;;14.30;;
23258;SDS011;11798;51.528;7.240;2023-02-03T03:26:41;23.57;;;14.23;;
23258;SDS011;11798;51.528;7.240;2023-02-03T03:29:26;26.30;;;15.90;;
23258;SDS011;11798;51.528;7.240;2023-02-03T03:31:59;21.90;;;14.60;;
23258;SDS011;11798;51.528;7.240;2023-02-03T03:34:25;20.23;;;13.67;;
23258;SDS011;11798;51.528;7.240;2023-02-03T03:36:55;20.67;;;14.07;;
23258;SDS011;11798;51.528;7.240;2023-02-03T03:39:34;23.20;;;13.03;;
23258;SDS011;11798;51.528;7.240;2023-02-03T03:42:21;20.00;;;12.70;;
23258;SDS011;11798;51.528;7.240;2023-02-03T03:44:52;24.87;;;12.63;;
23258;SDS011;11798;51.528;7.240;2023-02-03T03:47:25;24.20;;;12.80;;
23258;SDS011;11798;51.528;7.240;2023-02-03T03:49:56;17.27;;;11.33;;
23258;SDS011;11798;51.528;7.240;2023-02-03T03:52:25;20.07;;;12.53;;
23258;SDS011;11798;51.528;7.240;2023-02-03T03:54:54;19.03;;;11.30;;
23258;SDS011;11798;51.528;7.240;2023-02-03T03:57:32;20.27;;;11.33;;
23258;SDS011;11798;51.528;7.240;2023-02-03T04:00:13;22.17;;;11.30;;
23258;SDS011;11798;51.528;7.240;2023-02-03T04:02:41;18.10;;;10.10;;
23258;SDS011;11798;51.528;7.240;2023-02-03T04:05:11;14.07;;;9.57;;
23258;SDS011;11798;51.528;7.240;2023-02-03T04:07:42;15.43;;;10.17;;
23258;SDS011;11798;51.528;7.240;2023-02-03T04:10:13;15.63;;;9.37;;
23258;SDS011;11798;51.528;7.240;2023-02-03T04:12:40;12.80;;;8.57;;
23258;SDS011;11798;51.528;7.240;2023-02-03T04:15:06;16.97;;;9.10;;
23258;SDS011;11798;51.528;7.240;2023-02-03T04:17:32;17.23;;;9.87;;
23258;SDS011;11798;51.528;7.240;2023-02-03T04:20:00;16.53;;;10.17;;
23258;SDS011;11798;51.528;7.240;2023-02-03T04:22:26;16.80;;;8.97;;
23258;SDS011;11798;51.528;7.240;2023-02-03T04:24:52;13.27;;;8.93;;
23258;SDS011;11798;51.528;7.240;2023-02-03T04:27:17;16.60;;;9.87;;
23258;SDS011;11798;51.528;7.240;2023-02-03T04:29:43;17.23;;;9.03;;
23258;SDS011;11798;51.528;7.240;2023-02-03T04:32:08;14.00;;;8.63;;
23258;SDS011;11798;51.528;7.240;2023-02-03T04:34:34;12.33;;;8.07;;
23258;SDS011;11798;51.528;7.240;2023-02-03T04:36:59;17.43;;;9.20;;
23258;SDS011;11798;51.528;7.240;2023-02-03T04:39:25;12.87;;;8.63;;
23258;SDS011;11798;51.528;7.240;2023-02-03T04:41:50;15.73;;;9.20;;
23258;SDS011;11798;51.528;7.240;2023-02-03T04:44:16;14.37;;;8.13;;
23258;SDS011;11798;51.528;7.240;2023-02-03T04:46:42;15.73;;;8.10;;
23258;SDS011;11798;51.528;7.240;2023-02-03T04:49:07;14.90;;;8.77;;
23258;SDS011;11798;51.528;7.240;2023-02-03T04:51:35;15.23;;;8.77;;
23258;SDS011;11798;51.528;7.240;2023-02-03T04:54:01;19.77;;;8.10;;
23258;SDS011;11798;51.528;7.240;2023-02-03T04:56:26;19.40;;;8.27;;
23258;SDS011;11798;51.528;7.240;2023-02-03T04:58:52;15.27;;;8.57;;
23258;SDS011;11798;51.528;7.240;2023-02-03T05:01:17;14.47;;;7.67;;
23258;SDS011;11798;51.528;7.240;2023-02-03T05:03:43;13.30;;;8.00;;
23258;SDS011;11798;51.528;7.240;2023-02-03T05:06:08;15.37;;;8.83;;
23258;SDS011;11798;51.528;7.240;2023-02-03T05:08:34;17.53;;;8.53;;
23258;SDS011;11798;51.528;7.240;2023-02-03T05:11:00;14.90;;;8.07;;
23258;SDS011;11798;51.528;7.240;2023-02-03T05:13:25;13.83;;;8.13;;
23258;SDS011;11798;51.528;7.240;2023-02-03T05:15:51;16.63;;;8.80;;
23258;SDS011;11798;51.528;7.240;2023-02-03T05:18:16;15.00;;;8.23;;
23258;SDS011;11798;51.528;7.240;2023-02-03T05:20:42;11.77;;;7.73;;
23258;SDS011;11798;51.528;7.240;2023-02-03T05:23:08;15.80;;;7.90;;
23258;SDS011;11798;51.528;7.240;2023-02-03T05:25:33;15.43;;;7.47;;
23258;SDS011;11798;51.528;7.240;2023-02-03T05:27:59;14.60;;;7.40;;
23258;SDS011;11798;51.528;7.240;2023-02-03T05:30:24;14.87;;;7.47;;
23258;SDS011;11798;51.528;7.240;2023-02-03T05:32:50;14.80;;;7.07;;
23258;SDS011;11798;51.528;7.240;2023-02-03T05:35:15;13.97;;;7.37;;
23258;SDS011;11798;51.528;7.240;2023-02-03T05:37:44;16.63;;;7.73;;
23258;SDS011;11798;51.528;7.240;2023-02-03T05:40:11;13.27;;;7.40;;
23258;SDS011;11798;51.528;7.240;2023-02-03T05:42:56;12.67;;;6.43;;
23258;SDS011;11798;51.528;7.240;2023-02-03T05:45:21;12.43;;;7.07;;
23258;SDS011;11798;51.528;7.240;2023-02-03T05:47:47;15.27;;;7.03;;
23258;SDS011;11798;51.528;7.240;2023-02-03T05:50:12;13.80;;;7.10;;
23258;SDS011;11798;51.528;7.240;2023-02-03T05:52:38;12.90;;;6.43;;
23258;SDS011;11798;51.528;7.240;2023-02-03T05:55:04;14.30;;;6.87;;
23258;SDS011;11798;51.528;7.240;2023-02-03T05:57:29;12.70;;;6.73;;
23258;SDS011;11798;51.528;7.240;2023-02-03T05:59:55;13.80;;;6.50;;
23258;SDS011;11798;51.528;7.240;2023-02-03T06:02:21;9.90;;;6.53;;
23258;SDS011;11798;51.528;7.240;2023-02-03T06:04:46;16.97;;;6.50;;
23258;SDS011;11798;51.528;7.240;2023-02-03T06:07:12;10.10;;;5.57;;
23258;SDS011;11798;51.528;7.240;2023-02-03T06:09:37;11.23;;;5.60;;
23258;SDS011;11798;51.528;7.240;2023-02-03T06:12:03;9.70;;;5.40;;
23258;SDS011;11798;51.528;7.240;2023-02-03T06:14:29;9.60;;;5.00;;
23258;SDS011;11798;51.528;7.240;2023-02-03T06:16:54;13.90;;;6.00;;
23258;SDS011;11798;51.528;7.240;2023-02-03T06:19:20;8.13;;;5.20;;
23258;SDS011;11798;51.528;7.240;2023-02-03T06:21:45;11.60;;;5.73;;
23258;SDS011;11798;51.528;7.240;2023-02-03T06:24:11;11.70;;;5.40;;
23258;SDS011;11798;51.528;7.240;2023-02-03T06:26:36;11.63;;;5.73;;
23258;SDS011;11798;51.528;7.240;2023-02-03T06:29:02;9.10;;;5.40;;
23258;SDS011;11798;51.528;7.240;2023-02-03T06:31:28;10.47;;;5.53;;
23258;SDS011;11798;51.528;7.240;2023-02-03T06:33:53;10.40;;;5.60;;
23258;SDS011;11798;51.528;7.240;2023-02-03T06:36:21;8.83;;;6.27;;
23258;SDS011;11798;51.528;7.240;2023-02-03T06:38:47;11.50;;;5.63;;
23258;SDS011;11798;51.528;7.240;2023-02-03T06:41:13;10.87;;;5.67;;
23258;SDS011;11798;51.528;7.240;2023-02-03T06:43:38;10.37;;;5.90;;
23258;SDS011;11798;51.528;7.240;2023-02-03T06:46:04;9.83;;;6.30;;
23258;SDS011;11798;51.528;7.240;2023-02-03T06:48:30;12.00;;;5.90;;
23258;SDS011;11798;51.528;7.240;2023-02-03T06:50:55;13.10;;;6.23;;
23258;SDS011;11798;51.528;7.240;2023-02-03T06:53:21;12.87;;;6.50;;
23258;SDS011;11798;51.528;7.240;2023-02-03T06:55:46;12.73;;;5.87;;
23258;SDS011;11798;51.528;7.240;2023-02-03T06:58:12;12.90;;;7.00;;
23258;SDS011;11798;51.528;7.240;2023-02-03T07:00:38;13.03;;;6.97;;
23258;SDS011;11798;51.528;7.240;2023-02-03T07:03:03;14.73;;;6.37;;
23258;SDS011;11798;51.528;7.240;2023-02-03T07:05:29;13.37;;;8.03;;
23258;SDS011;11798;51.528;7.240;2023-02-03T07:07:54;11.90;;;7.30;;
23258;SDS011;11798;51.528;7.240;2023-02-03T07:10:20;12.73;;;7.37;;
23258;SDS011;11798;51.528;7.240;2023-02-03T07:12:46;13.83;;;7.20;;
23258;SDS011;11798;51.528;7.240;2023-02-03T07:15:12;15.77;;;8.30;;
23258;SDS011;11798;51.528;7.240;2023-02-03T07:17:37;14.13;;;7.13;;
23258;SDS011;11798;51.528;7.240;2023-02-03T07:20:03;14.93;;;7.37;;
23258;SDS011;11798;51.528;7.240;2023-02-03T07:22:30;13.33;;;7.90;;
23258;SDS011;11798;51.528;7.240;2023-02-03T07:24:55;15.97;;;7.77;;
23258;SDS011;11798;51.528;7.240;2023-02-03T07:27:21;14.50;;;7.87;;
23258;SDS011;11798;51.528;7.240;2023-02-03T07:29:46;15.23;;;7.50;;
23258;SDS011;11798;51.528;7.240;2023-02-03T07:32:12;10.57;;;6.77;;
23258;SDS011;11798;51.528;7.240;2023-02-03T07:34:38;11.97;;;7.63;;
23258;SDS011;11798;51.528;7.240;2023-02-03T07:37:03;11.50;;;8.37;;
23258;SDS011;11798;51.528;7.240;2023-02-03T07:39:29;12.23;;;7.27;;
23258;SDS011;11798;51.528;7.240;2023-02-03T07:41:54;10.77;;;7.40;;
23258;SDS011;11798;51.528;7.240;2023-02-03T07:44:20;13.03;;;8.03;;
23258;SDS011;11798;51.528;7.240;2023-02-03T07:46:46;15.13;;;7.60;;
23258;SDS011;11798;51.528;7.240;2023-02-03T07:49:11;14.30;;;6.73;;
23258;SDS011;11798;51.528;7.240;2023-02-03T07:51:37;11.67;;;8.33;;
23258;SDS011;11798;51.528;7.240;2023-02-03T07:54:03;11.73;;;7.33;;
23258;SDS011;11798;51.528;7.240;2023-02-03T07:56:28;14.73;;;8.77;;
23258;SDS011;11798;51.528;7.240;2023-02-03T07:58:56;11.00;;;8.10;;
23258;SDS011;11798;51.528;7.240;2023-02-03T08:01:22;12.37;;;7.87;;
23258;SDS011;11798;51.528;7.240;2023-02-03T08:03:48;13.57;;;8.50;;
23258;SDS011;11798;51.528;7.240;2023-02-03T08:06:14;14.73;;;9.13;;
23258;SDS011;11798;51.528;7.240;2023-02-03T08:08:40;12.20;;;8.90;;
23258;SDS011;11798;51.528;7.240;2023-02-03T08:11:06;14.40;;;8.90;;
23258;SDS011;11798;51.528;7.240;2023-02-03T08:13:31;17.13;;;8.47;;
23258;SDS011;11798;51.528;7.240;2023-02-03T08:15:57;14.37;;;8.10;;
23258;SDS011;11798;51.528;7.240;2023-02-03T08:18:23;13.03;;;8.30;;
23258;SDS011;11798;51.528;7.240;2023-02-03T08:20:48;15.23;;;7.53;;
23258;SDS011;11798;51.528;7.240;2023-02-03T08:23:14;13.47;;;8.10;;
23258;SDS011;11798;51.528;7.240;2023-02-03T08:25:39;15.83;;;8.50;;
23258;SDS011;11798;51.528;7.240;2023-02-03T08:28:05;15.80;;;7.83;;
23258;SDS011;11798;51.528;7.240;2023-02-03T08:30:31;10.50;;;6.43;;
23258;SDS011;11798;51.528;7.240;2023-02-03T08:32:56;11.93;;;7.17;;
23258;SDS011;11798;51.528;7.240;2023-02-03T08:35:22;13.27;;;6.93;;
23258;SDS011;11798;51.528;7.240;2023-02-03T08:37:48;12.90;;;6.33;;
23258;SDS011;11798;51.528;7.240;2023-02-03T08:40:14;9.50;;;6.27;;
23258;SDS011;11798;51.528;7.240;2023-02-03T08:42:40;13.63;;;6.90;;
23258;SDS011;11798;51.528;7.240;2023-02-03T08:45:05;16.47;;;7.10;;
23258;SDS011;11798;51.528;7.240;2023-02-03T08:47:32;12.60;;;7.13;;
23258;SDS011;11798;51.528;7.240;2023-02-03T08:49:58;13.57;;;7.30;;
23258;SDS011;11798;51.528;7.240;2023-02-03T08:52:23;10.00;;;6.23;;
23258;SDS011;11798;51.528;7.240;2023-02-03T08:54:49;11.70;;;6.13;;
23258;SDS011;11798;51.528;7.240;2023-02-03T08:57:15;9.93;;;6.10;;
23258;SDS011;11798;51.528;7.240;2023-02-03T08:59:41;10.73;;;5.53;;
23258;SDS011;11798;51.528;7.240;2023-02-03T09:02:08;10.60;;;5.83;;
23258;SDS011;11798;51.528;7.240;2023-02-03T09:04:38;12.30;;;6.50;;
23258;SDS011;11798;51.528;7.240;2023-02-03T09:07:03;13.23;;;6.23;;
23258;SDS011;11798;51.528;7.240;2023-02-03T09:09:29;15.13;;;6.70;;
23258;SDS011;11798;51.528;7.240;2023-02-03T09:11:55;11.37;;;6.37;;
23258;SDS011;11798;51.528;7.240;2023-02-03T09:14:26;13.40;;;6.60;;
23258;SDS011;11798;51.528;7.240;2023-02-03T09:16:57;12.57;;;6.20;;
23258;SDS011;11798;51.528;7.240;2023-02-03T09:19:23;13.17;;;6.80;;
23258;SDS011;11798;51.528;7.240;2023-02-03T09:21:49;18.13;;;7.57;;
23258;SDS011;11798;51.528;7.240;2023-02-03T09:24:15;14.43;;;6.67;;
23258;SDS011;11798;51.528;7.240;2023-02-03T09:26:42;12.87;;;6.97;;
23258;SDS011;11798;51.528;7.240;2023-02-03T09:29:07;10.47;;;6.40;;
23258;SDS011;11798;51.528;7.240;2023-02-03T09:31:33;11.60;;;6.53;;
23258;SDS011;11798;51.528;7.240;2023-02-03T09:33:59;11.70;;;6.47;;
23258;SDS011;11798;51.528;7.240;2023-02-03T09:36:25;11.83;;;6.80;;
23258;SDS011;11798;51.528;7.240;2023-02-03T09:38:50;14.70;;;6.70;;
23258;SDS011;11798;51.528;7.240;2023-02-03T09:41:33;14.10;;;7.00;;
23258;SDS011;11798;51.528;7.240;2023-02-03T09:44:32;14.60;;;6.70;;
23258;SDS011;11798;51.528;7.240;2023-02-03T09:47:20;11.80;;;6.70;;
23258;SDS011;11798;51.528;7.240;2023-02-03T09:49:50;10.87;;;6.53;;
23258;SDS011;11798;51.528;7.240;2023-02-03T09:52:21;12.27;;;6.57;;
23258;SDS011;11798;51.528;7.240;2023-02-03T09:57:36;11.80;;;6.47;;
23258;SDS011;11798;51.528;7.240;2023-02-03T10:00:41;11.13;;;6.07;;
23258;SDS011;11798;51.528;7.240;2023-02-03T10:03:06;13.07;;;6.63;;
23258;SDS011;11798;51.528;7.240;2023-02-03T10:20:10;14.87;;;7.47;;
23258;SDS011;11798;51.528;7.240;2023-02-03T10:22:23;14.47;;;6.10;;
23258;SDS011;11798;51.528;7.240;2023-02-03T10:27:39;16.80;;;6.43;;
23258;SDS011;11798;51.528;7.240;2023-02-03T10:32:39;12.83;;;6.27;;
23258;SDS011;11798;51.528;7.240;2023-02-03T10:35:09;12.07;;;6.27;;
23258;SDS011;11798;51.528;7.240;2023-02-03T10:37:38;10.97;;;6.20;;
23258;SDS011;11798;51.528;7.240;2023-02-03T10:40:13;15.13;;;6.60;;
23258;SDS011;11798;51.528;7.240;2023-02-03T10:42:40;10.77;;;6.47;;
23258;SDS011;11798;51.528;7.240;2023-02-03T10:45:28;15.37;;;6.53;;
23258;SDS011;11798;51.528;7.240;2023-02-03T10:47:57;12.80;;;6.10;;
23258;SDS011;11798;51.528;7.240;2023-02-03T10:50:25;9.57;;;5.47;;
23258;SDS011;11798;51.528;7.240;2023-02-03T10:55:42;15.17;;;6.63;;
23258;SDS011;11798;51.528;7.240;2023-02-03T10:58:13;12.07;;;6.20;;
23258;SDS011;11798;51.528;7.240;2023-02-03T11:00:43;12.23;;;6.20;;
23258;SDS011;11798;51.528;7.240;2023-02-03T11:05:34;10.93;;;5.67;;
23258;SDS011;11798;51.528;7.240;2023-02-03T11:08:00;13.77;;;6.50;;
23258;SDS011;11798;51.528;7.240;2023-02-03T11:10:27;10.13;;;6.37;;
23258;SDS011;11798;51.528;7.240;2023-02-03T11:13:17;20.23;;;6.93;;
23258;SDS011;11798;51.528;7.240;2023-02-03T11:16:05;10.37;;;6.37;;
23258;SDS011;11798;51.528;7.240;2023-02-03T11:18:43;14.77;;;7.00;;
23258;SDS011;11798;51.528;7.240;2023-02-03T11:21:16;15.63;;;6.23;;
23258;SDS011;11798;51.528;7.240;2023-02-03T11:29:31;13.90;;;5.83;;
23258;SDS011;11798;51.528;7.240;2023-02-03T11:32:22;13.67;;;6.67;;
23258;SDS011;11798;51.528;7.240;2023-02-03T11:34:55;13.37;;;5.83;;
23258;SDS011;11798;51.528;7.240;2023-02-03T11:42:31;14.00;;;6.57;;
23258;SDS011;11798;51.528;7.240;2023-02-03T11:45:46;13.47;;;6.47;;
23258;SDS011;11798;51.528;7.240;2023-02-03T11:53:04;12.00;;;6.63;;
23258;SDS011;11798;51.528;7.240;2023-02-03T12:01:24;13.80;;;6.87;;
23258;SDS011;11798;51.528;7.240;2023-02-03T12:04:17;14.83;;;6.30;;
23258;SDS011;11798;51.528;7.240;2023-02-03T12:07:14;15.13;;;6.33;;
23258;SDS011;11798;51.528;7.240;2023-02-03T12:10:27;15.23;;;6.97;;
23258;SDS011;11798;51.528;7.240;2023-02-03T12:16:35;11.07;;;6.50;;
23258;SDS011;11798;51.528;7.240;2023-02-03T12:19:16;13.57;;;6.40;;
23258;SDS011;11798;51.528;7.240;2023-02-03T12:21:50;12.07;;;6.17;;
23258;SDS011;11798;51.528;7.240;2023-02-03T12:29:54;13.73;;;7.00;;
23258;SDS011;11798;51.528;7.240;2023-02-03T12:35:22;14.57;;;6.20;;
23258;SDS011;11798;51.528;7.240;2023-02-03T12:38:30;13.93;;;6.50;;
23258;SDS011;11798;51.528;7.240;2023-02-03T12:41:07;15.50;;;6.07;;
23258;SDS011;11798;51.528;7.240;2023-02-03T12:43:39;9.53;;;5.77;;
23258;SDS011;11798;51.528;7.240;2023-02-03T12:46:35;12.40;;;6.43;;
23258;SDS011;11798;51.528;7.240;2023-02-03T12:51:47;14.10;;;5.77;;
23258;SDS011;11798;51.528;7.240;2023-02-03T12:57:27;11.73;;;5.40;;
23258;SDS011;11798;51.528;7.240;2023-02-03T13:06:05;12.53;;;4.93;;
23258;SDS011;11798;51.528;7.240;2023-02-03T13:08:41;9.07;;;5.20;;
23258;SDS011;11798;51.528;7.240;2023-02-03T13:13:41;13.43;;;5.13;;
23258;SDS011;11798;51.528;7.240;2023-02-03T13:16:14;11.17;;;5.03;;
23258;SDS011;11798;51.528;7.240;2023-02-03T13:18:45;9.13;;;4.57;;
23258;SDS011;11798;51.528;7.240;2023-02-03T13:21:17;12.70;;;4.37;;
23258;SDS011;11798;51.528;7.240;2023-02-03T13:23:43;11.47;;;4.60;;
23258;SDS011;11798;51.528;7.240;2023-02-03T13:26:13;10.93;;;4.33;;
23258;SDS011;11798;51.528;7.240;2023-02-03T13:37:49;16.07;;;5.43;;
23258;SDS011;11798;51.528;7.240;2023-02-03T13:43:26;13.87;;;4.63;;
23258;SDS011;11798;51.528;7.240;2023-02-03T13:45:55;14.20;;;4.30;;
23258;SDS011;11798;51.528;7.240;2023-02-03T13:48:26;17.00;;;5.17;;
23258;SDS011;11798;51.528;7.240;2023-02-03T13:51:02;18.07;;;4.90;;
23258;SDS011;11798;51.528;7.240;2023-02-03T13:53:28;22.23;;;6.30;;
23258;SDS011;11798;51.528;7.240;2023-02-03T13:56:03;11.87;;;4.10;;
23258;SDS011;11798;51.528;7.240;2023-02-03T13:58:32;20.37;;;4.90;;
23258;SDS011;11798;51.528;7.240;2023-02-03T14:01:03;18.83;;;4.27;;
23258;SDS011;11798;51.528;7.240;2023-02-03T14:05:55;14.80;;;4.40;;
23258;SDS011;11798;51.528;7.240;2023-02-03T14:16:44;24.73;;;4.53;;
23258;SDS011;11798;51.528;7.240;2023-02-03T14:22:19;17.27;;;4.27;;
23258;SDS011;11798;51.528;7.240;2023-02-03T14:24:42;19.83;;;4.90;;
23258;SDS011;11798;51.528;7.240;2023-02-03T14:27:20;23.53;;;5.93;;
23258;SDS011;11798;51.528;7.240;2023-02-03T14:30:08;24.53;;;4.77;;
23258;SDS011;11798;51.528;7.240;2023-02-03T14:32:53;19.37;;;4.23;;
23258;SDS011;11798;51.528;7.240;2023-02-03T14:35:37;23.67;;;4.93;;
23258;SDS011;11798;51.528;7.240;2023-02-03T14:38:08;20.50;;;5.80;;
23258;SDS011;11798;51.528;7.240;2023-02-03T14:40:56;22.63;;;4.67;;
23258;SDS011;11798;51.528;7.240;2023-02-03T14:49:03;19.83;;;5.07;;
23258;SDS011;11798;51.528;7.240;2023-02-03T14:54:36;22.97;;;4.83;;
23258;SDS011;11798;51.528;7.240;2023-02-03T15:02:30;21.33;;;5.60;;
23258;SDS011;11798;51.528;7.240;2023-02-03T15:07:41;24.67;;;5.60;;
23258;SDS011;11798;51.528;7.240;2023-02-03T15:10:14;17.03;;;5.50;;
23258;SDS011;11798;51.528;7.240;2023-02-03T15:12:46;23.17;;;5.13;;
23258;SDS011;11798;51.528;7.240;2023-02-03T15:15:24;16.87;;;5.20;;
23258;SDS011;11798;51.528;7.240;2023-02-03T15:17:53;16.70;;;5.17;;
23258;SDS011;11798;51.528;7.240;2023-02-03T15:20:29;23.17;;;5.83;;
23258;SDS011;11798;51.528;7.240;2023-02-03T15:22:55;24.03;;;5.77;;
23258;SDS011;11798;51.528;7.240;2023-02-03T15:25:21;23.73;;;5.57;;
23258;SDS011;11798;51.528;7.240;2023-02-03T15:27:49;18.27;;;5.20;;
23258;SDS011;11798;51.528;7.240;2023-02-03T15:30:16;22.93;;;6.10;;
23258;SDS011;11798;51.528;7.240;2023-02-03T15:32:52;18.73;;;5.03;;
23258;SDS011;11798;51.528;7.240;2023-02-03T15:35:28;17.27;;;4.70;;
23258;SDS011;11798;51.528;7.240;2023-02-03T15:37:58;27.43;;;5.33;;
23258;SDS011;11798;51.528;7.240;2023-02-03T15:40:50;23.10;;;5.07;;
23258;SDS011;11798;51.528;7.240;2023-02-03T15:51:35;26.63;;;5.40;;
23258;SDS011;11798;51.528;7.240;2023-02-03T15:54:21;16.83;;;4.57;;
23258;SDS011;11798;51.528;7.240;2023-02-03T15:57:05;18.00;;;3.90;;
23258;SDS011;11798;51.528;7.240;2023-02-03T15:59:40;18.00;;;5.03;;
23258;SDS011;11798;51.528;7.240;2023-02-03T16:02:21;22.67;;;4.83;;
23258;SDS011;11798;51.528;7.240;2023-02-03T16:04:51;26.97;;;4.90;;
23258;SDS011;11798;51.528;7.240;2023-02-03T16:07:19;18.77;;;4.33;;
23258;SDS011;11798;51.528;7.240;2023-02-03T16:09:52;24.23;;;5.77;;
23258;SDS011;11798;51.528;7.240;2023-02-03T16:14:55;28.73;;;5.73;;
23258;SDS011;11798;51.528;7.240;2023-02-03T16:22:38;26.00;;;4.87;;
23258;SDS011;11798;51.528;7.240;2023-02-03T16:25:28;29.03;;;5.67;;
23258;SDS011;11798;51.528;7.240;2023-02-03T16:27:58;24.33;;;4.63;;
23258;SDS011;11798;51.528;7.240;2023-02-03T16:34:01;20.83;;;5.03;;
23258;SDS011;11798;51.528;7.240;2023-02-03T16:36:53;23.20;;;5.73;;
23258;SDS011;11798;51.528;7.240;2023-02-03T16:39:37;17.70;;;4.97;;
23258;SDS011;11798;51.528;7.240;2023-02-03T16:42:21;17.23;;;4.57;;
23258;SDS011;11798;51.528;7.240;2023-02-03T16:45:09;28.87;;;5.47;;
23258;SDS011;11798;51.528;7.240;2023-02-03T16:47:56;27.97;;;4.63;;
23258;SDS011;11798;51.528;7.240;2023-02-03T16:50:41;22.53;;;4.83;;
23258;SDS011;11798;51.528;7.240;2023-02-03T16:53:21;18.87;;;4.63;;
23258;SDS011;11798;51.528;7.240;2023-02-03T16:55:48;25.33;;;5.57;;
23258;SDS011;11798;51.528;7.240;2023-02-03T16:58:15;26.03;;;5.33;;
23258;SDS011;11798;51.528;7.240;2023-02-03T17:00:41;29.07;;;5.97;;
23258;SDS011;11798;51.528;7.240;2023-02-03T17:03:12;18.03;;;5.13;;
23258;SDS011;11798;51.528;7.240;2023-02-03T17:05:41;27.53;;;6.20;;
23258;SDS011;11798;51.528;7.240;2023-02-03T17:08:08;26.30;;;5.90;;
23258;SDS011;11798;51.528;7.240;2023-02-03T17:10:34;25.87;;;6.93;;
23258;SDS011;11798;51.528;7.240;2023-02-03T17:13:02;22.83;;;5.43;;
23258;SDS011;11798;51.528;7.240;2023-02-03T17:15:28;18.87;;;5.33;;
23258;SDS011;11798;51.528;7.240;2023-02-03T17:17:54;24.30;;;4.97;;
23258;SDS011;11798;51.528;7.240;2023-02-03T17:20:19;22.40;;;5.33;;
23258;SDS011;11798;51.528;7.240;2023-02-03T17:22:45;24.70;;;5.17;;
23258;SDS011;11798;51.528;7.240;2023-02-03T17:25:11;22.43;;;5.57;;